sensor_id;sensor_type;location;lat;lon;timestamp;P1;durP1;ratioP1;P2;durP2;ratioP2
20826;SDS011;10574;52.508;13.236;2023-02-11T00:02:03;14.70;;;5.77;;
20826;SDS011;10574;52.508;13.236;2023-02-11T00:04:31;14.33;;;5.53;;
20826;SDS011;10574;52.508;13.236;2023-02-11T00:06:59;3.67;;;2.93;;
20826;SDS011;10574;52.508;13.236;2023-02-11T00:09:27;6.90;;;2.43;;
20826;SDS011;10574;52.508;13.236;2023-02-11T00:11:54;4.63;;;2.90;;
20826;SDS011;10574;52.508;13.236;2023-02-11T00:14:22;8.10;;;4.53;;
20826;SDS011;10574;52.508;13.236;2023-02-11T00:16:50;27.43;;;4.67;;
20826;SDS011;10574;52.508;13.236;2023-02-11T00:19:17;11.77;;;5.03;;
20826;SDS011;10574;52.508;13.236;2023-02-11T00:21:47;11.80;;;5.63;;
20826;SDS011;10574;52.508;13.236;2023-02-11T00:24:15;9.67;;;4.57;;
20826;SDS011;10574;52.508;13.236;2023-02-11T00:26:42;7.27;;;4.47;;
20826;SDS011;10574;52.508;13.236;2023-02-11T00:29:10;16.27;;;5.20;;
20826;SDS011;10574;52.508;13.236;2023-02-11T00:31:38;5.23;;;3.10;;
20826;SDS011;10574;52.508;13.236;2023-02-11T00:34:06;5.13;;;4.17;;
20826;SDS011;10574;52.508;13.236;2023-02-11T00:36:34;5.93;;;4.63;;
20826;SDS011;10574;52.508;13.236;2023-02-11T00:39:02;3.97;;;3.00;;
20826;SDS011;10574;52.508;13.236;2023-02-11T00:41:30;15.23;;;4.03;;
20826;SDS011;10574;52.508;13.236;2023-02-11T00:43:59;5.70;;;4.40;;
20826;SDS011;10574;52.508;13.236;2023-02-11T00:46:27;9.07;;;4.33;;
20826;SDS011;10574;52.508;13.236;2023-02-11T00:48:56;7.80;;;5.67;;
20826;SDS011;10574;52.508;13.236;2023-02-11T00:51:25;12.07;;;4.40;;
20826;SDS011;10574;52.508;13.236;2023-02-11T00:53:53;7.27;;;4.03;;
20826;SDS011;10574;52.508;13.236;2023-02-11T00:56:21;7.00;;;4.07;;
20826;SDS011;10574;52.508;13.236;2023-02-11T00:58:49;6.23;;;3.47;;
20826;SDS011;10574;52.508;13.236;2023-02-11T01:01:19;18.73;;;5.77;;
20826;SDS011;10574;52.508;13.236;2023-02-11T01:03:48;12.80;;;6.50;;
20826;SDS011;10574;52.508;13.236;2023-02-11T01:06:15;7.33;;;3.27;;
20826;SDS011;10574;52.508;13.236;2023-02-11T01:08:43;10.07;;;3.50;;
20826;SDS011;10574;52.508;13.236;2023-02-11T01:11:12;2.73;;;2.53;;
20826;SDS011;10574;52.508;13.236;2023-02-11T01:13:45;13.30;;;4.67;;
20826;SDS011;10574;52.508;13.236;2023-02-11T01:16:14;11.67;;;5.30;;
20826;SDS011;10574;52.508;13.236;2023-02-11T01:18:42;10.73;;;4.27;;
20826;SDS011;10574;52.508;13.236;2023-02-11T01:21:10;2.97;;;2.73;;
20826;SDS011;10574;52.508;13.236;2023-02-11T01:23:38;8.03;;;4.20;;
20826;SDS011;10574;52.508;13.236;2023-02-11T01:26:06;8.30;;;4.47;;
20826;SDS011;10574;52.508;13.236;2023-02-11T01:28:34;17.73;;;5.03;;
20826;SDS011;10574;52.508;13.236;2023-02-11T01:31:02;18.53;;;5.33;;
20826;SDS011;10574;52.508;13.236;2023-02-11T01:33:30;6.33;;;4.20;;
20826;SDS011;10574;52.508;13.236;2023-02-11T01:36:02;10.20;;;3.70;;
20826;SDS011;10574;52.508;13.236;2023-02-11T01:38:32;3.47;;;3.17;;
20826;SDS011;10574;52.508;13.236;2023-02-11T01:41:01;10.57;;;6.70;;
20826;SDS011;10574;52.508;13.236;2023-02-11T01:43:33;3.83;;;3.30;;
20826;SDS011;10574;52.508;13.236;2023-02-11T01:46:19;4.57;;;3.37;;
20826;SDS011;10574;52.508;13.236;2023-02-11T01:48:48;3.90;;;3.53;;
20826;SDS011;10574;52.508;13.236;2023-02-11T01:51:20;8.20;;;3.47;;
20826;SDS011;10574;52.508;13.236;2023-02-11T01:53:48;3.73;;;2.20;;
20826;SDS011;10574;52.508;13.236;2023-02-11T01:56:36;5.00;;;3.57;;
20826;SDS011;10574;52.508;13.236;2023-02-11T01:59:24;9.57;;;4.07;;
20826;SDS011;10574;52.508;13.236;2023-02-11T02:02:02;6.97;;;3.57;;
20826;SDS011;10574;52.508;13.236;2023-02-11T02:04:32;9.50;;;5.07;;
20826;SDS011;10574;52.508;13.236;2023-02-11T02:07:09;9.83;;;4.43;;
20826;SDS011;10574;52.508;13.236;2023-02-11T02:09:58;12.20;;;5.23;;
20826;SDS011;10574;52.508;13.236;2023-02-11T02:12:27;5.73;;;3.97;;
20826;SDS011;10574;52.508;13.236;2023-02-11T02:15:10;6.63;;;4.80;;
20826;SDS011;10574;52.508;13.236;2023-02-11T02:17:41;7.40;;;4.80;;
20826;SDS011;10574;52.508;13.236;2023-02-11T02:23:04;5.87;;;4.77;;
20826;SDS011;10574;52.508;13.236;2023-02-11T02:25:47;5.27;;;3.53;;
20826;SDS011;10574;52.508;13.236;2023-02-11T02:28:37;15.37;;;4.27;;
20826;SDS011;10574;52.508;13.236;2023-02-11T02:34:17;3.80;;;2.43;;
20826;SDS011;10574;52.508;13.236;2023-02-11T02:36:53;13.93;;;5.77;;
20826;SDS011;10574;52.508;13.236;2023-02-11T02:39:28;7.80;;;4.43;;
20826;SDS011;10574;52.508;13.236;2023-02-11T02:41:52;12.53;;;4.77;;
20826;SDS011;10574;52.508;13.236;2023-02-11T02:44:21;14.40;;;5.27;;
20826;SDS011;10574;52.508;13.236;2023-02-11T02:46:50;16.97;;;8.07;;
20826;SDS011;10574;52.508;13.236;2023-02-11T02:49:18;10.60;;;5.50;;
20826;SDS011;10574;52.508;13.236;2023-02-11T02:54:50;6.27;;;3.10;;
20826;SDS011;10574;52.508;13.236;2023-02-11T02:57:34;10.83;;;4.10;;
20826;SDS011;10574;52.508;13.236;2023-02-11T03:08:31;10.83;;;5.67;;
20826;SDS011;10574;52.508;13.236;2023-02-11T03:11:18;6.53;;;4.80;;
20826;SDS011;10574;52.508;13.236;2023-02-11T03:13:47;7.50;;;3.97;;
20826;SDS011;10574;52.508;13.236;2023-02-11T03:16:26;4.43;;;3.23;;
20826;SDS011;10574;52.508;13.236;2023-02-11T03:18:53;6.80;;;5.43;;
20826;SDS011;10574;52.508;13.236;2023-02-11T03:21:25;9.67;;;5.00;;
20826;SDS011;10574;52.508;13.236;2023-02-11T03:23:56;11.53;;;6.07;;
20826;SDS011;10574;52.508;13.236;2023-02-11T03:26:31;11.67;;;5.40;;
20826;SDS011;10574;52.508;13.236;2023-02-11T03:29:30;9.30;;;4.90;;
20826;SDS011;10574;52.508;13.236;2023-02-11T03:34:26;10.67;;;5.60;;
20826;SDS011;10574;52.508;13.236;2023-02-11T03:37:05;9.57;;;4.97;;
20826;SDS011;10574;52.508;13.236;2023-02-11T03:39:35;6.93;;;4.97;;
20826;SDS011;10574;52.508;13.236;2023-02-11T03:42:07;9.10;;;4.77;;
20826;SDS011;10574;52.508;13.236;2023-02-11T03:44:39;7.93;;;5.43;;
20826;SDS011;10574;52.508;13.236;2023-02-11T03:47:08;10.43;;;5.17;;
20826;SDS011;10574;52.508;13.236;2023-02-11T03:49:39;20.97;;;7.17;;
20826;SDS011;10574;52.508;13.236;2023-02-11T03:52:09;9.87;;;5.07;;
20826;SDS011;10574;52.508;13.236;2023-02-11T03:54:39;13.30;;;6.13;;
20826;SDS011;10574;52.508;13.236;2023-02-11T03:57:09;10.63;;;5.37;;
20826;SDS011;10574;52.508;13.236;2023-02-11T03:59:50;8.53;;;3.50;;
20826;SDS011;10574;52.508;13.236;2023-02-11T04:02:26;19.10;;;6.17;;
20826;SDS011;10574;52.508;13.236;2023-02-11T04:04:57;12.27;;;5.83;;
20826;SDS011;10574;52.508;13.236;2023-02-11T04:07:25;5.57;;;4.17;;
20826;SDS011;10574;52.508;13.236;2023-02-11T04:09:52;12.53;;;5.30;;
20826;SDS011;10574;52.508;13.236;2023-02-11T04:12:20;7.80;;;4.30;;
20826;SDS011;10574;52.508;13.236;2023-02-11T04:14:48;15.37;;;5.47;;
20826;SDS011;10574;52.508;13.236;2023-02-11T04:17:16;10.80;;;5.60;;
20826;SDS011;10574;52.508;13.236;2023-02-11T04:19:44;13.63;;;6.47;;
20826;SDS011;10574;52.508;13.236;2023-02-11T04:22:12;5.37;;;4.57;;
20826;SDS011;10574;52.508;13.236;2023-02-11T04:24:40;24.30;;;6.57;;
20826;SDS011;10574;52.508;13.236;2023-02-11T04:27:09;8.77;;;5.10;;
20826;SDS011;10574;52.508;13.236;2023-02-11T04:29:36;5.97;;;4.03;;
20826;SDS011;10574;52.508;13.236;2023-02-11T04:32:04;9.43;;;5.70;;
20826;SDS011;10574;52.508;13.236;2023-02-11T04:34:32;10.50;;;6.13;;
20826;SDS011;10574;52.508;13.236;2023-02-11T04:37:00;11.63;;;6.43;;
20826;SDS011;10574;52.508;13.236;2023-02-11T04:39:27;7.27;;;6.20;;
20826;SDS011;10574;52.508;13.236;2023-02-11T04:41:55;15.00;;;6.77;;
20826;SDS011;10574;52.508;13.236;2023-02-11T04:44:23;6.93;;;5.17;;
20826;SDS011;10574;52.508;13.236;2023-02-11T04:46:51;11.37;;;6.30;;
20826;SDS011;10574;52.508;13.236;2023-02-11T04:49:19;19.30;;;6.93;;
20826;SDS011;10574;52.508;13.236;2023-02-11T04:51:47;5.10;;;3.83;;
20826;SDS011;10574;52.508;13.236;2023-02-11T04:54:15;11.37;;;4.53;;
20826;SDS011;10574;52.508;13.236;2023-02-11T04:56:43;5.27;;;4.63;;
20826;SDS011;10574;52.508;13.236;2023-02-11T04:59:11;13.53;;;6.50;;
20826;SDS011;10574;52.508;13.236;2023-02-11T05:01:39;8.07;;;5.30;;
20826;SDS011;10574;52.508;13.236;2023-02-11T05:04:07;10.93;;;5.00;;
20826;SDS011;10574;52.508;13.236;2023-02-11T05:06:36;5.77;;;4.10;;
20826;SDS011;10574;52.508;13.236;2023-02-11T05:09:05;12.03;;;5.37;;
20826;SDS011;10574;52.508;13.236;2023-02-11T05:11:32;11.90;;;5.07;;
20826;SDS011;10574;52.508;13.236;2023-02-11T05:14:01;7.80;;;5.60;;
20826;SDS011;10574;52.508;13.236;2023-02-11T05:16:29;11.03;;;5.80;;
20826;SDS011;10574;52.508;13.236;2023-02-11T05:18:57;17.57;;;6.47;;
20826;SDS011;10574;52.508;13.236;2023-02-11T05:21:25;24.33;;;6.00;;
20826;SDS011;10574;52.508;13.236;2023-02-11T05:23:52;26.73;;;7.90;;
20826;SDS011;10574;52.508;13.236;2023-02-11T05:26:20;16.23;;;6.90;;
20826;SDS011;10574;52.508;13.236;2023-02-11T05:28:48;8.37;;;4.97;;
20826;SDS011;10574;52.508;13.236;2023-02-11T05:31:16;6.83;;;4.63;;
20826;SDS011;10574;52.508;13.236;2023-02-11T05:33:44;5.90;;;4.43;;
20826;SDS011;10574;52.508;13.236;2023-02-11T05:36:12;10.50;;;6.07;;
20826;SDS011;10574;52.508;13.236;2023-02-11T05:38:39;17.37;;;7.37;;
20826;SDS011;10574;52.508;13.236;2023-02-11T05:41:08;10.17;;;5.77;;
20826;SDS011;10574;52.508;13.236;2023-02-11T05:43:36;7.53;;;5.53;;
20826;SDS011;10574;52.508;13.236;2023-02-11T05:46:04;9.13;;;5.17;;
20826;SDS011;10574;52.508;13.236;2023-02-11T05:48:32;17.23;;;6.67;;
20826;SDS011;10574;52.508;13.236;2023-02-11T05:51:00;7.90;;;5.53;;
20826;SDS011;10574;52.508;13.236;2023-02-11T05:53:28;15.30;;;5.83;;
20826;SDS011;10574;52.508;13.236;2023-02-11T05:55:55;11.50;;;6.20;;
20826;SDS011;10574;52.508;13.236;2023-02-11T05:58:23;14.17;;;6.87;;
20826;SDS011;10574;52.508;13.236;2023-02-11T06:00:51;22.60;;;6.33;;
20826;SDS011;10574;52.508;13.236;2023-02-11T06:03:19;26.97;;;5.73;;
20826;SDS011;10574;52.508;13.236;2023-02-11T06:05:47;8.03;;;4.27;;
20826;SDS011;10574;52.508;13.236;2023-02-11T06:08:15;16.03;;;6.77;;
20826;SDS011;10574;52.508;13.236;2023-02-11T06:10:47;14.40;;;6.83;;
20826;SDS011;10574;52.508;13.236;2023-02-11T06:13:11;9.30;;;5.83;;
20826;SDS011;10574;52.508;13.236;2023-02-11T06:15:39;10.60;;;7.10;;
20826;SDS011;10574;52.508;13.236;2023-02-11T06:18:07;9.37;;;5.17;;
20826;SDS011;10574;52.508;13.236;2023-02-11T06:20:35;9.10;;;4.90;;
20826;SDS011;10574;52.508;13.236;2023-02-11T06:23:04;9.60;;;5.83;;
20826;SDS011;10574;52.508;13.236;2023-02-11T06:25:32;23.13;;;7.43;;
20826;SDS011;10574;52.508;13.236;2023-02-11T06:27:59;23.77;;;7.73;;
20826;SDS011;10574;52.508;13.236;2023-02-11T06:30:27;18.23;;;6.33;;
20826;SDS011;10574;52.508;13.236;2023-02-11T06:32:55;15.77;;;8.80;;
20826;SDS011;10574;52.508;13.236;2023-02-11T06:35:23;30.73;;;10.00;;
20826;SDS011;10574;52.508;13.236;2023-02-11T06:37:50;17.33;;;8.43;;
20826;SDS011;10574;52.508;13.236;2023-02-11T06:40:19;27.10;;;9.07;;
20826;SDS011;10574;52.508;13.236;2023-02-11T06:42:47;8.57;;;7.13;;
20826;SDS011;10574;52.508;13.236;2023-02-11T06:45:15;14.73;;;7.50;;
20826;SDS011;10574;52.508;13.236;2023-02-11T06:47:43;13.47;;;6.20;;
20826;SDS011;10574;52.508;13.236;2023-02-11T06:50:11;19.77;;;8.23;;
20826;SDS011;10574;52.508;13.236;2023-02-11T06:52:41;35.23;;;9.00;;
20826;SDS011;10574;52.508;13.236;2023-02-11T06:55:08;27.57;;;5.83;;
20826;SDS011;10574;52.508;13.236;2023-02-11T06:57:36;21.07;;;9.20;;
20826;SDS011;10574;52.508;13.236;2023-02-11T07:00:06;8.27;;;6.73;;
20826;SDS011;10574;52.508;13.236;2023-02-11T07:02:34;15.87;;;7.13;;
20826;SDS011;10574;52.508;13.236;2023-02-11T07:05:04;9.53;;;6.27;;
20826;SDS011;10574;52.508;13.236;2023-02-11T07:07:32;15.63;;;7.03;;
20826;SDS011;10574;52.508;13.236;2023-02-11T07:10:02;9.43;;;5.93;;
20826;SDS011;10574;52.508;13.236;2023-02-11T07:12:31;17.53;;;7.00;;
20826;SDS011;10574;52.508;13.236;2023-02-11T07:14:59;11.07;;;5.67;;
20826;SDS011;10574;52.508;13.236;2023-02-11T07:17:27;7.03;;;4.83;;
20826;SDS011;10574;52.508;13.236;2023-02-11T07:19:55;14.10;;;6.87;;
20826;SDS011;10574;52.508;13.236;2023-02-11T07:22:22;18.57;;;8.27;;
20826;SDS011;10574;52.508;13.236;2023-02-11T07:24:50;13.40;;;7.17;;
20826;SDS011;10574;52.508;13.236;2023-02-11T07:27:18;17.00;;;6.57;;
20826;SDS011;10574;52.508;13.236;2023-02-11T07:29:46;18.43;;;6.77;;
20826;SDS011;10574;52.508;13.236;2023-02-11T07:32:14;14.47;;;6.10;;
20826;SDS011;10574;52.508;13.236;2023-02-11T07:34:42;19.10;;;7.83;;
20826;SDS011;10574;52.508;13.236;2023-02-11T07:37:11;14.63;;;6.33;;
20826;SDS011;10574;52.508;13.236;2023-02-11T07:39:39;9.40;;;6.17;;
20826;SDS011;10574;52.508;13.236;2023-02-11T07:42:07;17.00;;;8.63;;
20826;SDS011;10574;52.508;13.236;2023-02-11T07:44:35;23.37;;;10.43;;
20826;SDS011;10574;52.508;13.236;2023-02-11T07:47:02;11.03;;;7.27;;
20826;SDS011;10574;52.508;13.236;2023-02-11T07:49:30;11.70;;;8.47;;
20826;SDS011;10574;52.508;13.236;2023-02-11T07:51:59;10.23;;;5.93;;
20826;SDS011;10574;52.508;13.236;2023-02-11T07:54:27;18.17;;;7.43;;
20826;SDS011;10574;52.508;13.236;2023-02-11T07:56:54;19.47;;;9.43;;
20826;SDS011;10574;52.508;13.236;2023-02-11T07:59:23;9.70;;;6.37;;
20826;SDS011;10574;52.508;13.236;2023-02-11T08:01:52;13.13;;;7.53;;
20826;SDS011;10574;52.508;13.236;2023-02-11T08:04:20;15.00;;;7.10;;
20826;SDS011;10574;52.508;13.236;2023-02-11T08:06:48;4.07;;;3.67;;
20826;SDS011;10574;52.508;13.236;2023-02-11T08:09:17;8.20;;;4.90;;
20826;SDS011;10574;52.508;13.236;2023-02-11T08:11:45;19.07;;;8.83;;
20826;SDS011;10574;52.508;13.236;2023-02-11T08:14:13;12.73;;;7.83;;
20826;SDS011;10574;52.508;13.236;2023-02-11T08:16:41;17.63;;;7.33;;
20826;SDS011;10574;52.508;13.236;2023-02-11T08:19:14;11.53;;;7.37;;
20826;SDS011;10574;52.508;13.236;2023-02-11T08:21:39;13.27;;;5.37;;
20826;SDS011;10574;52.508;13.236;2023-02-11T08:24:07;15.70;;;7.30;;
20826;SDS011;10574;52.508;13.236;2023-02-11T08:26:36;12.83;;;7.47;;
20826;SDS011;10574;52.508;13.236;2023-02-11T08:29:08;15.37;;;7.30;;
20826;SDS011;10574;52.508;13.236;2023-02-11T08:31:39;16.13;;;9.20;;
20826;SDS011;10574;52.508;13.236;2023-02-11T08:34:08;10.87;;;6.83;;
20826;SDS011;10574;52.508;13.236;2023-02-11T08:36:39;20.53;;;7.23;;
20826;SDS011;10574;52.508;13.236;2023-02-11T08:39:11;14.20;;;7.43;;
20826;SDS011;10574;52.508;13.236;2023-02-11T08:41:39;11.20;;;6.80;;
20826;SDS011;10574;52.508;13.236;2023-02-11T08:44:06;11.97;;;5.97;;
20826;SDS011;10574;52.508;13.236;2023-02-11T08:46:34;15.53;;;6.53;;
20826;SDS011;10574;52.508;13.236;2023-02-11T08:49:02;14.50;;;7.70;;
20826;SDS011;10574;52.508;13.236;2023-02-11T08:51:30;33.37;;;7.30;;
20826;SDS011;10574;52.508;13.236;2023-02-11T08:53:58;31.27;;;16.10;;
20826;SDS011;10574;52.508;13.236;2023-02-11T08:56:27;19.97;;;10.00;;
20826;SDS011;10574;52.508;13.236;2023-02-11T08:58:56;18.97;;;8.13;;
20826;SDS011;10574;52.508;13.236;2023-02-11T09:01:25;17.97;;;7.93;;
20826;SDS011;10574;52.508;13.236;2023-02-11T09:03:54;10.90;;;6.87;;
20826;SDS011;10574;52.508;13.236;2023-02-11T09:06:23;37.90;;;9.53;;
20826;SDS011;10574;52.508;13.236;2023-02-11T09:08:52;15.93;;;8.20;;
20826;SDS011;10574;52.508;13.236;2023-02-11T09:11:23;7.10;;;5.20;;
20826;SDS011;10574;52.508;13.236;2023-02-11T09:13:54;17.90;;;6.77;;
20826;SDS011;10574;52.508;13.236;2023-02-11T09:16:23;10.43;;;6.60;;
20826;SDS011;10574;52.508;13.236;2023-02-11T09:18:52;11.17;;;7.13;;
20826;SDS011;10574;52.508;13.236;2023-02-11T09:21:23;19.53;;;7.80;;
20826;SDS011;10574;52.508;13.236;2023-02-11T09:23:50;23.23;;;5.23;;
20826;SDS011;10574;52.508;13.236;2023-02-11T09:26:23;19.03;;;8.37;;
20826;SDS011;10574;52.508;13.236;2023-02-11T09:28:52;9.87;;;6.57;;
20826;SDS011;10574;52.508;13.236;2023-02-11T09:31:24;6.27;;;4.73;;
20826;SDS011;10574;52.508;13.236;2023-02-11T09:33:54;7.80;;;4.53;;
20826;SDS011;10574;52.508;13.236;2023-02-11T09:36:25;13.27;;;5.60;;
20826;SDS011;10574;52.508;13.236;2023-02-11T09:38:56;13.50;;;6.77;;
20826;SDS011;10574;52.508;13.236;2023-02-11T09:44:32;9.90;;;5.53;;
20826;SDS011;10574;52.508;13.236;2023-02-11T09:47:03;13.80;;;6.17;;
20826;SDS011;10574;52.508;13.236;2023-02-11T09:50:01;14.93;;;6.93;;
20826;SDS011;10574;52.508;13.236;2023-02-11T09:52:43;10.87;;;5.30;;
20826;SDS011;10574;52.508;13.236;2023-02-11T09:55:19;15.13;;;5.30;;
20826;SDS011;10574;52.508;13.236;2023-02-11T09:57:44;10.30;;;6.17;;
20826;SDS011;10574;52.508;13.236;2023-02-11T10:00:27;8.50;;;5.70;;
20826;SDS011;10574;52.508;13.236;2023-02-11T10:03:03;19.97;;;7.07;;
20826;SDS011;10574;52.508;13.236;2023-02-11T10:05:55;10.70;;;7.30;;
20826;SDS011;10574;52.508;13.236;2023-02-11T10:11:32;9.40;;;5.40;;
20826;SDS011;10574;52.508;13.236;2023-02-11T10:14:22;10.57;;;5.70;;
20826;SDS011;10574;52.508;13.236;2023-02-11T10:22:53;18.53;;;6.37;;
20826;SDS011;10574;52.508;13.236;2023-02-11T10:25:27;14.37;;;5.83;;
20826;SDS011;10574;52.508;13.236;2023-02-11T10:28:00;13.07;;;7.53;;
20826;SDS011;10574;52.508;13.236;2023-02-11T10:30:31;25.63;;;7.60;;
20826;SDS011;10574;52.508;13.236;2023-02-11T10:33:06;13.13;;;7.67;;
20826;SDS011;10574;52.508;13.236;2023-02-11T10:35:34;10.13;;;7.30;;
20826;SDS011;10574;52.508;13.236;2023-02-11T10:38:03;10.93;;;6.13;;
20826;SDS011;10574;52.508;13.236;2023-02-11T10:40:31;8.23;;;4.97;;
20826;SDS011;10574;52.508;13.236;2023-02-11T10:43:06;21.37;;;6.03;;
20826;SDS011;10574;52.508;13.236;2023-02-11T10:45:46;7.67;;;5.03;;
20826;SDS011;10574;52.508;13.236;2023-02-11T10:54:08;15.47;;;6.23;;
20826;SDS011;10574;52.508;13.236;2023-02-11T10:56:35;12.23;;;7.30;;
20826;SDS011;10574;52.508;13.236;2023-02-11T10:59:15;13.23;;;5.80;;
20826;SDS011;10574;52.508;13.236;2023-02-11T11:01:48;14.47;;;6.20;;
20826;SDS011;10574;52.508;13.236;2023-02-11T11:07:11;11.33;;;5.63;;
20826;SDS011;10574;52.508;13.236;2023-02-11T11:09:54;12.17;;;5.77;;
20826;SDS011;10574;52.508;13.236;2023-02-11T11:12:46;27.50;;;4.57;;
20826;SDS011;10574;52.508;13.236;2023-02-11T11:15:19;4.83;;;4.37;;
20826;SDS011;10574;52.508;13.236;2023-02-11T11:18:08;22.43;;;4.00;;
20826;SDS011;10574;52.508;13.236;2023-02-11T11:20:28;19.77;;;6.03;;
20826;SDS011;10574;52.508;13.236;2023-02-11T11:23:09;11.43;;;4.87;;
20826;SDS011;10574;52.508;13.236;2023-02-11T11:26:07;26.83;;;5.00;;
20826;SDS011;10574;52.508;13.236;2023-02-11T11:28:38;9.70;;;6.43;;
20826;SDS011;10574;52.508;13.236;2023-02-11T11:31:16;16.53;;;6.23;;
20826;SDS011;10574;52.508;13.236;2023-02-11T11:33:50;8.43;;;5.80;;
20826;SDS011;10574;52.508;13.236;2023-02-11T11:36:20;11.80;;;6.80;;
20826;SDS011;10574;52.508;13.236;2023-02-11T11:38:55;6.27;;;4.57;;
20826;SDS011;10574;52.508;13.236;2023-02-11T11:41:25;10.47;;;4.50;;
20826;SDS011;10574;52.508;13.236;2023-02-11T11:44:00;7.63;;;4.37;;
20826;SDS011;10574;52.508;13.236;2023-02-11T11:46:34;10.87;;;4.73;;
20826;SDS011;10574;52.508;13.236;2023-02-11T11:49:11;16.63;;;4.43;;
20826;SDS011;10574;52.508;13.236;2023-02-11T11:51:44;7.37;;;5.60;;
20826;SDS011;10574;52.508;13.236;2023-02-11T11:54:14;14.13;;;5.63;;
20826;SDS011;10574;52.508;13.236;2023-02-11T11:56:49;15.47;;;6.30;;
20826;SDS011;10574;52.508;13.236;2023-02-11T11:59:14;5.63;;;3.83;;
20826;SDS011;10574;52.508;13.236;2023-02-11T12:12:37;7.77;;;4.47;;
20826;SDS011;10574;52.508;13.236;2023-02-11T12:15:25;5.97;;;4.00;;
20826;SDS011;10574;52.508;13.236;2023-02-11T12:18:12;5.03;;;4.60;;
20826;SDS011;10574;52.508;13.236;2023-02-11T12:23:45;17.33;;;7.03;;
20826;SDS011;10574;52.508;13.236;2023-02-11T12:32:08;15.60;;;5.93;;
20826;SDS011;10574;52.508;13.236;2023-02-11T12:40:19;6.53;;;4.77;;
20826;SDS011;10574;52.508;13.236;2023-02-11T12:51:17;4.13;;;2.97;;
20826;SDS011;10574;52.508;13.236;2023-02-11T12:56:45;22.80;;;5.33;;
20826;SDS011;10574;52.508;13.236;2023-02-11T13:02:23;10.30;;;4.97;;
20826;SDS011;10574;52.508;13.236;2023-02-11T13:04:53;10.53;;;4.67;;
20826;SDS011;10574;52.508;13.236;2023-02-11T13:07:27;35.07;;;10.93;;
20826;SDS011;10574;52.508;13.236;2023-02-11T13:12:45;18.67;;;5.83;;
20826;SDS011;10574;52.508;13.236;2023-02-11T13:15:33;27.17;;;9.20;;
20826;SDS011;10574;52.508;13.236;2023-02-11T13:20:58;6.47;;;3.23;;
20826;SDS011;10574;52.508;13.236;2023-02-11T13:23:40;6.57;;;3.37;;
20826;SDS011;10574;52.508;13.236;2023-02-11T13:26:24;5.73;;;3.13;;
20826;SDS011;10574;52.508;13.236;2023-02-11T13:28:56;4.03;;;3.17;;
20826;SDS011;10574;52.508;13.236;2023-02-11T13:31:30;6.50;;;3.23;;
20826;SDS011;10574;52.508;13.236;2023-02-11T13:33:57;8.97;;;3.70;;
20826;SDS011;10574;52.508;13.236;2023-02-11T13:36:26;3.80;;;2.90;;
20826;SDS011;10574;52.508;13.236;2023-02-11T13:38:57;7.40;;;4.00;;
20826;SDS011;10574;52.508;13.236;2023-02-11T13:41:28;5.83;;;3.47;;
20826;SDS011;10574;52.508;13.236;2023-02-11T13:44:03;8.83;;;4.90;;
20826;SDS011;10574;52.508;13.236;2023-02-11T13:46:46;8.13;;;4.97;;
20826;SDS011;10574;52.508;13.236;2023-02-11T13:49:21;5.93;;;2.77;;
20826;SDS011;10574;52.508;13.236;2023-02-11T13:51:47;9.67;;;2.87;;
20826;SDS011;10574;52.508;13.236;2023-02-11T13:54:20;4.60;;;3.50;;
20826;SDS011;10574;52.508;13.236;2023-02-11T13:59:56;5.33;;;3.10;;
20826;SDS011;10574;52.508;13.236;2023-02-11T14:10:58;6.90;;;3.50;;
20826;SDS011;10574;52.508;13.236;2023-02-11T14:13:32;5.20;;;2.97;;
20826;SDS011;10574;52.508;13.236;2023-02-11T14:16:04;3.40;;;1.67;;
20826;SDS011;10574;52.508;13.236;2023-02-11T14:18:56;5.03;;;3.27;;
20826;SDS011;10574;52.508;13.236;2023-02-11T14:21:39;2.87;;;2.57;;
20826;SDS011;10574;52.508;13.236;2023-02-11T14:26:38;8.43;;;3.50;;
20826;SDS011;10574;52.508;13.236;2023-02-11T14:32:15;5.63;;;1.83;;
20826;SDS011;10574;52.508;13.236;2023-02-11T14:37:41;7.37;;;3.30;;
20826;SDS011;10574;52.508;13.236;2023-02-11T14:40:19;3.07;;;2.57;;
20826;SDS011;10574;52.508;13.236;2023-02-11T14:43:11;2.73;;;2.37;;
20826;SDS011;10574;52.508;13.236;2023-02-11T14:45:41;5.40;;;1.93;;
20826;SDS011;10574;52.508;13.236;2023-02-11T14:48:18;1.97;;;1.60;;
20826;SDS011;10574;52.508;13.236;2023-02-11T14:51:26;8.37;;;2.30;;
20826;SDS011;10574;52.508;13.236;2023-02-11T14:53:20;6.10;;;2.43;;
20826;SDS011;10574;52.508;13.236;2023-02-11T14:55:50;17.17;;;2.80;;
20826;SDS011;10574;52.508;13.236;2023-02-11T14:58:20;3.07;;;2.60;;
20826;SDS011;10574;52.508;13.236;2023-02-11T15:00:52;16.50;;;2.40;;
20826;SDS011;10574;52.508;13.236;2023-02-11T15:09:33;5.77;;;2.70;;
20826;SDS011;10574;52.508;13.236;2023-02-11T15:11:18;8.33;;;1.70;;
20826;SDS011;10574;52.508;13.236;2023-02-11T15:13:48;2.03;;;1.53;;
20826;SDS011;10574;52.508;13.236;2023-02-11T15:16:22;6.47;;;2.17;;
20826;SDS011;10574;52.508;13.236;2023-02-11T15:18:53;3.10;;;2.27;;
20826;SDS011;10574;52.508;13.236;2023-02-11T15:21:25;1.53;;;1.33;;
20826;SDS011;10574;52.508;13.236;2023-02-11T15:23:59;10.67;;;2.70;;
20826;SDS011;10574;52.508;13.236;2023-02-11T15:26:31;3.37;;;1.60;;
20826;SDS011;10574;52.508;13.236;2023-02-11T15:28:59;3.80;;;1.67;;
20826;SDS011;10574;52.508;13.236;2023-02-11T15:31:27;3.33;;;2.50;;
20826;SDS011;10574;52.508;13.236;2023-02-11T15:33:55;3.70;;;3.33;;
20826;SDS011;10574;52.508;13.236;2023-02-11T15:36:25;3.17;;;1.50;;
20826;SDS011;10574;52.508;13.236;2023-02-11T15:41:42;2.23;;;1.53;;
20826;SDS011;10574;52.508;13.236;2023-02-11T15:44:26;2.70;;;1.87;;
20826;SDS011;10574;52.508;13.236;2023-02-11T15:46:55;2.40;;;1.20;;
20826;SDS011;10574;52.508;13.236;2023-02-11T15:49:23;1.07;;;1.07;;
20826;SDS011;10574;52.508;13.236;2023-02-11T15:51:52;3.93;;;1.97;;
20826;SDS011;10574;52.508;13.236;2023-02-11T15:54:23;2.13;;;1.93;;
20826;SDS011;10574;52.508;13.236;2023-02-11T15:56:58;4.77;;;3.07;;
20826;SDS011;10574;52.508;13.236;2023-02-11T15:59:28;2.53;;;2.30;;
20826;SDS011;10574;52.508;13.236;2023-02-11T16:02:12;1.07;;;1.03;;
20826;SDS011;10574;52.508;13.236;2023-02-11T16:04:52;6.57;;;2.40;;
20826;SDS011;10574;52.508;13.236;2023-02-11T16:07:41;4.50;;;1.57;;
20826;SDS011;10574;52.508;13.236;2023-02-11T16:10:22;3.90;;;2.70;;
20826;SDS011;10574;52.508;13.236;2023-02-11T16:12:51;4.17;;;1.63;;
20826;SDS011;10574;52.508;13.236;2023-02-11T16:15:40;2.97;;;1.97;;
20826;SDS011;10574;52.508;13.236;2023-02-11T16:18:11;15.23;;;7.67;;
20826;SDS011;10574;52.508;13.236;2023-02-11T16:20:45;5.77;;;3.33;;
20826;SDS011;10574;52.508;13.236;2023-02-11T16:23:12;4.23;;;1.90;;
20826;SDS011;10574;52.508;13.236;2023-02-11T16:25:42;2.77;;;1.70;;
20826;SDS011;10574;52.508;13.236;2023-02-11T16:28:13;5.47;;;3.77;;
20826;SDS011;10574;52.508;13.236;2023-02-11T16:30:41;0.87;;;0.87;;
20826;SDS011;10574;52.508;13.236;2023-02-11T16:33:09;1.47;;;1.37;;
20826;SDS011;10574;52.508;13.236;2023-02-11T16:35:37;12.20;;;4.73;;
20826;SDS011;10574;52.508;13.236;2023-02-11T16:38:05;1.50;;;1.40;;
20826;SDS011;10574;52.508;13.236;2023-02-11T16:40:34;2.10;;;1.77;;
20826;SDS011;10574;52.508;13.236;2023-02-11T16:43:02;1.93;;;1.77;;
20826;SDS011;10574;52.508;13.236;2023-02-11T16:45:36;1.53;;;1.33;;
20826;SDS011;10574;52.508;13.236;2023-02-11T16:48:07;2.53;;;1.60;;